Dursley weather forecast

Dursley - Forecast

Forecast for Dursley

Last update: 28.01.2020 09:48
Next update: 28.01.2020 15:59
Latitude: 51.68° N
Longitude: 2.35° W
Altitude: 79 m
    Temperature Precipitation Pressure Wind Humidity Clouds Fog
 07:54     16:49 Today
11:00   996.0 hPa 13 mph 76% 13%
12:00   995.8 hPa 20 mph 64% 35%
13:00 0.1 mm 996.0 hPa 19 mph 73% 59%
14:00   996.3 hPa 15 mph 75% 63%
15:00   996.9 hPa 13 mph 77% 34%
16:00   997.7 hPa 13 mph 76% 8%
17:00   998.9 hPa 11 mph 74% 8%
18:00   1000.2 hPa 10 mph 76% 27%
19:00   1001.0 hPa 10 mph 77% 1%
20:00   1001.6 hPa 10 mph 79% 5%
21:00   1002.1 hPa 11 mph 78% 27%
22:00   1002.7 hPa 10 mph 77% 84%
23:00   1003.4 hPa 12 mph 76% 96%
 07:53     16:51 Tomorrow
00:00   1004.0 hPa 13 mph 74% 93%
01:00   1005.0 hPa 11 mph 75% 7%
02:00   1005.2 hPa 9 mph 79% 36%
03:00   1005.7 hPa 11 mph 79% 13%
04:00   1006.0 hPa 11 mph 80% 5%
05:00   1006.5 hPa 11 mph 80% 0%
06:00   1007.3 hPa 11 mph 82% 0%
07:00   1007.9 hPa 11 mph 83% 1%
08:00   1008.5 hPa 10 mph 84% 59%
09:00   1009.3 hPa 11 mph 80% 0%
10:00   1009.8 hPa 11 mph 78% 1%
11:00   1010.4 hPa 12 mph 74% 1%
12:00   1010.6 hPa 15 mph 68% 35%
13:00   1010.4 hPa 15 mph 63% 81%
14:00   1010.4 hPa 13 mph 66% 56%
15:00   1010.1 hPa 14 mph 73% 47%
16:00   1010.2 hPa 14 mph 78% 100%
17:00   1010.4 hPa 13 mph 80% 99%
18:00   1010.5 hPa 13 mph 80% 90%
19:00   1010.4 hPa 13 mph 83% 74%
20:00   1010.5 hPa 11 mph 87% 91%
21:00   1010.3 hPa 12 mph 88% 57%
22:00   1010.0 hPa 12 mph 88% 85%
23:00   1009.9 hPa 11 mph 92% 93%
 07:51     16:53 Thursday 30.01.2020
00:00   1009.5 hPa 9 mph 95% 98%
01:00   1009.0 hPa 8 mph 96% 99%
02:00   1008.3 hPa 8 mph 97% 100%
03:00   1007.6 hPa 8 mph 97% 99%
04:00   1006.4 hPa 7 mph 97% 99%
05:00   1005.7 hPa 7 mph 96% 98%
06:00   1005.0 hPa 7 mph 97% 100%
07:00   1004.3 hPa 7 mph 97% 100%
08:00   1003.6 hPa 6 mph 98% 100%
09:00 0.1 mm 1003.1 hPa 5 mph 97% 100%
10:00 0.2 mm 1002.3 hPa 6 mph 95% 100%
11:00 0.2 mm 1001.8 hPa 7 mph 95% 100%
12:00   1001.4 hPa 7 mph 95% 100%
13:00   1001.0 hPa 9 mph 96% 100%
14:00   1000.8 hPa 10 mph 95% 100%
15:00   1001.0 hPa 12 mph 95% 100%
16:00   1001.1 hPa 13 mph 97% 100%
17:00   1001.7 hPa 13 mph 98% 100%
18:00   1002.4 hPa 13 mph 98% 100%
19:00   1002.7 hPa 14 mph 97% 100%
20:00   1002.9 hPa 15 mph 96% 100%
21:00   1003.5 hPa 14 mph 96% 100%
22:00   1004.5 hPa 13 mph 96% 100%
23:00   1005.1 hPa 11 mph 93% 100%
 07:50     16:55 Friday 31.01.2020
00:00   1005.3 hPa 12 mph 95% 100%
06:00 0.1 mm 1005.1 hPa 15 mph 97% 100%
12:00 0.9 mm 1004.2 hPa 16 mph 93% 100%
18:00 1.4 mm 1002.3 hPa 17 mph 93% 100%
 07:48     16:56 Saturday 01.02.2020
00:00 0.1 mm 1002.6 hPa 18 mph 95% 100%
06:00   1003.4 hPa 12 mph 88% 63%
12:00 1.2 mm 1003.7 hPa 17 mph 91% 82%
18:00 0.5 mm 1003.8 hPa 15 mph 93% 95%
 07:47     16:58 Sunday 02.02.2020
00:00 0.3 mm 1004.2 hPa 11 mph 93% 100%
06:00 7.9 mm 997.0 hPa 17 mph 94% 100%
12:00 1.1 mm 1002.1 hPa 22 mph 85% 40%
18:00 0.3 mm 1008.4 hPa 17 mph 82% 98%
 07:45     17:00 Monday 03.02.2020
00:00   1013.4 hPa 13 mph 89% 81%
06:00   1012.7 hPa 11 mph 86% 100%
12:00 0.9 mm 1011.1 hPa 7 mph 92% 100%
18:00 2.0 mm 1008.5 hPa 6 mph 93% 100%
 07:44     17:02 Tuesday 04.02.2020
00:00 2.6 mm 1009.4 hPa 8 mph 93% 100%
06:00   1012.3 hPa 6 mph 88% 82%
12:00   1014.3 hPa 13 mph 67% 41%
18:00   1014.2 hPa 10 mph 68% 1%
 07:42     17:04 Wednesday 05.02.2020
00:00   1015.5 hPa 14 mph 75% 34%
06:00   1018.4 hPa 13 mph 76% 78%
12:00   1024.9 hPa 20 mph 62% 49%
18:00   1029.8 hPa 15 mph 74% 41%
 07:40     17:06 Thursday 06.02.2020
00:00   1033.2 hPa 11 mph 73% 1%
06:00   1033.0 hPa 11 mph 80% 12%
12:00   1033.1 hPa 16 mph 57% 91%
18:00   1032.9 hPa 12 mph 59% 6%
 
Last update: 28.01.2020 09:48
Next update: 28.01.2020 15:59
Latitude: 51.68° N
Longitude: 2.35° W
Altitude: 79 m
See our about page for acknowledgements.


NEW! Browse more than 3 million forecasts in 240 countries.
How-to: Choose country in dropdown, then write few first letters of the place in the box and the search suggests hits


Yellow warning

    No weather warnings have been issued for Gloucestershire at this time.

Live conditions
Cheltenham mostly clear 5
Forest of Dean mostly clear 3
Gloucester partly cloudy 4
North Cotswolds mostly clear 3
Bristol mostly clear 5

Tuesday's Extremes

  •   Today

  • This Year

High Temp: 2.8°C   at  12:00 AM
Low Temp: -0.9°C  at 7:43 AM
Rain Rate: 7.5 mm/hr @ 1:19 AM
UV High: 0.0  at  12:00 AM
Max Gust: 6.9 mph at 2:46 AM
Min Windchill: -1.8°C  at  6:11 AM